QFA1 WSSS-EGLL
Flight info
| Callsign | QFA1 |
|---|---|
| Flight time | N/A |
| Altitude | 34000 |
| Route | AROSO5B AROSO Y513 KALIL Y501 RINBA Y503 VPL P628 KAGUL/N0505F360 P628 RK G202 ZB L750 GODSI/N0499F380 L750 RANAH B449 ETRAP B447 KRS B143 TUNEK A909 RODAR M11 REBLO UM11 CRM UL746 INB/N0496F400 UL746 ODERO DCT OPT DCT SOKRU DCT BEGLA DCT DEXIT DCT INBED DCT BOMBI DCT ADKUV DCT SOGRI DCT DENUT L608 LOGAN |
| Aircraft | A388/J-SADE2E3FGHIJ3J4J5M1RWXY/LB1D1 |
Departure
| Time | N/A |
|---|---|
| Airport | Singapore Changi Airport (WSSS) |
Arrival
| Time | 2026-05-04 20:31 |
|---|---|
| Airport | London Heathrow Airport (EGLL) |
| Time | Latitude | Longitude | Altitude | Speed | Heading |
|---|---|---|---|---|---|
| 2026-05-04 18:11 | 45.86646 | 22.95272 | 39005 ft | 489 kts | 300° |
| 2026-05-04 18:11 | 45.89316 | 22.88141 | 39077 ft | 482 kts | 299° |
| 2026-05-04 18:12 | 45.92490 | 22.79644 | 39076 ft | 484 kts | 299° |
| 2026-05-04 18:12 | 45.95652 | 22.71150 | 39077 ft | 484 kts | 299° |
| 2026-05-04 18:13 | 45.98824 | 22.62603 | 39078 ft | 484 kts | 299° |
| 2026-05-04 18:14 | 46.03556 | 22.49803 | 39071 ft | 484 kts | 299° |
| 2026-05-04 18:14 | 46.06717 | 22.41218 | 39076 ft | 483 kts | 299° |
| 2026-05-04 18:15 | 46.12987 | 22.24110 | 39072 ft | 483 kts | 299° |
| 2026-05-04 18:16 | 46.16100 | 22.15573 | 39064 ft | 483 kts | 299° |
| 2026-05-04 18:16 | 46.19225 | 22.06977 | 39065 ft | 483 kts | 299° |
| 2026-05-04 18:17 | 46.23900 | 21.94068 | 39064 ft | 483 kts | 299° |
| 2026-05-04 18:18 | 46.28545 | 21.81180 | 39061 ft | 483 kts | 298° |
| 2026-05-04 18:18 | 46.31643 | 21.72548 | 39057 ft | 482 kts | 298° |
| 2026-05-04 18:19 | 46.36248 | 21.59665 | 39054 ft | 482 kts | 298° |
| 2026-05-04 18:19 | 46.39318 | 21.51042 | 39058 ft | 481 kts | 298° |
| 2026-05-04 18:20 | 46.42371 | 21.42442 | 39070 ft | 481 kts | 298° |
| 2026-05-04 18:20 | 46.45435 | 21.33778 | 39067 ft | 481 kts | 298° |
| 2026-05-04 18:21 | 46.48490 | 21.25118 | 39063 ft | 482 kts | 298° |
| 2026-05-04 18:21 | 46.51521 | 21.16495 | 39063 ft | 482 kts | 298° |
| 2026-05-04 18:22 | 46.54570 | 21.07789 | 39061 ft | 482 kts | 298° |
| 2026-05-04 18:22 | 46.57606 | 20.99095 | 39065 ft | 482 kts | 298° |
| 2026-05-04 18:23 | 46.60619 | 20.90438 | 39063 ft | 482 kts | 298° |
| 2026-05-04 18:23 | 46.63647 | 20.81707 | 39107 ft | 484 kts | 298° |
| 2026-05-04 18:24 | 46.65164 | 20.77324 | 39482 ft | 484 kts | 298° |
| 2026-05-04 18:24 | 46.66655 | 20.73006 | 39880 ft | 483 kts | 298° |
| 2026-05-04 18:24 | 46.68165 | 20.68627 | 40256 ft | 483 kts | 297° |
| 2026-05-04 18:24 | 46.69679 | 20.64232 | 40649 ft | 483 kts | 297° |
| 2026-05-04 18:25 | 46.71183 | 20.59856 | 41019 ft | 483 kts | 297° |
| 2026-05-04 18:25 | 46.72671 | 20.55518 | 41376 ft | 483 kts | 297° |
| 2026-05-04 18:25 | 46.74176 | 20.51127 | 41739 ft | 483 kts | 297° |
| 2026-05-04 18:25 | 46.75678 | 20.46732 | 42100 ft | 483 kts | 297° |
| 2026-05-04 18:26 | 46.77178 | 20.42341 | 42462 ft | 483 kts | 297° |
| 2026-05-04 18:26 | 46.78680 | 20.37933 | 42801 ft | 483 kts | 297° |
| 2026-05-04 18:26 | 46.80179 | 20.33529 | 43038 ft | 486 kts | 297° |
| 2026-05-04 18:26 | 46.81686 | 20.29092 | 43047 ft | 483 kts | 297° |
| 2026-05-04 18:27 | 46.84628 | 20.20407 | 43055 ft | 480 kts | 297° |
| 2026-05-04 18:27 | 46.87595 | 20.11622 | 43056 ft | 482 kts | 297° |
| 2026-05-04 18:28 | 46.90560 | 20.02812 | 43055 ft | 481 kts | 297° |
| 2026-05-04 18:28 | 46.93494 | 19.94065 | 43051 ft | 481 kts | 296° |
| 2026-05-04 18:29 | 46.96442 | 19.85248 | 43043 ft | 481 kts | 296° |
| 2026-05-04 18:29 | 46.99360 | 19.76490 | 43040 ft | 480 kts | 296° |
| 2026-05-04 18:30 | 47.03752 | 19.63251 | 43046 ft | 480 kts | 296° |
| 2026-05-04 18:31 | 47.06641 | 19.54508 | 43043 ft | 480 kts | 296° |
| 2026-05-04 18:31 | 47.09558 | 19.45647 | 43047 ft | 481 kts | 296° |
| 2026-05-04 18:32 | 47.12465 | 19.36785 | 43047 ft | 481 kts | 296° |
| 2026-05-04 18:32 | 47.15357 | 19.27943 | 43041 ft | 481 kts | 296° |
| 2026-05-04 18:33 | 47.18253 | 19.19054 | 43045 ft | 482 kts | 296° |
| 2026-05-04 18:33 | 47.21126 | 19.10206 | 43047 ft | 482 kts | 296° |
| 2026-05-04 18:34 | 47.24013 | 19.01284 | 43051 ft | 482 kts | 296° |
| 2026-05-04 18:34 | 47.26901 | 18.92329 | 43044 ft | 483 kts | 296° |
| 2026-05-04 18:35 | 47.29775 | 18.83385 | 43041 ft | 483 kts | 295° |
| 2026-05-04 18:35 | 47.32633 | 18.74461 | 43040 ft | 483 kts | 295° |
| 2026-05-04 18:36 | 47.35499 | 18.65477 | 43039 ft | 483 kts | 295° |
| 2026-05-04 18:36 | 47.38340 | 18.56544 | 43032 ft | 483 kts | 295° |
| 2026-05-04 18:37 | 47.41198 | 18.47522 | 43033 ft | 483 kts | 295° |
| 2026-05-04 18:37 | 47.44029 | 18.38555 | 43028 ft | 483 kts | 295° |
| 2026-05-04 18:38 | 47.46866 | 18.29537 | 43023 ft | 484 kts | 295° |
| 2026-05-04 18:38 | 47.49697 | 18.20509 | 43022 ft | 484 kts | 295° |
| 2026-05-04 18:39 | 47.52520 | 18.11470 | 43018 ft | 483 kts | 295° |
| 2026-05-04 18:39 | 47.55316 | 18.02485 | 43016 ft | 483 kts | 295° |
| 2026-05-04 18:40 | 47.58123 | 17.93433 | 43006 ft | 483 kts | 295° |
| 2026-05-04 18:40 | 47.60923 | 17.84374 | 42998 ft | 482 kts | 295° |
| 2026-05-04 18:41 | 47.63693 | 17.75376 | 42996 ft | 482 kts | 294° |
| 2026-05-04 18:41 | 47.66471 | 17.66321 | 42993 ft | 482 kts | 294° |
| 2026-05-04 18:42 | 47.69242 | 17.57255 | 42989 ft | 481 kts | 294° |
| 2026-05-04 18:42 | 47.71987 | 17.48241 | 42986 ft | 481 kts | 294° |
| 2026-05-04 18:43 | 47.74742 | 17.39166 | 42985 ft | 481 kts | 294° |
| 2026-05-04 18:43 | 47.77387 | 17.30089 | 42974 ft | 481 kts | 293° |
| 2026-05-04 18:44 | 47.80020 | 17.20925 | 42966 ft | 480 kts | 293° |
| 2026-05-04 18:44 | 47.82662 | 17.11772 | 42969 ft | 480 kts | 293° |
| 2026-05-04 18:45 | 47.85281 | 17.02690 | 42964 ft | 480 kts | 293° |
| 2026-05-04 18:45 | 47.87905 | 16.93537 | 42963 ft | 480 kts | 293° |
| 2026-05-04 18:46 | 47.90519 | 16.84375 | 42951 ft | 479 kts | 292° |
| 2026-05-04 18:46 | 47.93103 | 16.75284 | 42944 ft | 479 kts | 292° |
| 2026-05-04 18:47 | 47.95701 | 16.66106 | 42938 ft | 479 kts | 292° |
| 2026-05-04 18:47 | 47.98278 | 16.56970 | 42939 ft | 479 kts | 292° |
| 2026-05-04 18:48 | 48.00860 | 16.47778 | 42938 ft | 479 kts | 292° |
| 2026-05-04 18:48 | 48.03426 | 16.38612 | 42940 ft | 480 kts | 292° |
| 2026-05-04 18:49 | 48.05991 | 16.29410 | 42944 ft | 479 kts | 292° |
| 2026-05-04 18:49 | 48.08553 | 16.20186 | 42937 ft | 479 kts | 292° |
| 2026-05-04 18:50 | 48.11105 | 16.10963 | 42936 ft | 479 kts | 292° |
| 2026-05-04 18:50 | 48.13632 | 16.01792 | 42925 ft | 479 kts | 292° |
| 2026-05-04 18:51 | 48.16167 | 15.92557 | 42925 ft | 478 kts | 292° |
| 2026-05-04 18:51 | 48.18692 | 15.83323 | 42921 ft | 478 kts | 292° |
| 2026-05-04 18:52 | 48.21209 | 15.74082 | 42913 ft | 478 kts | 291° |
| 2026-05-04 18:52 | 48.23706 | 15.64878 | 42907 ft | 478 kts | 291° |
| 2026-05-04 18:53 | 48.26191 | 15.55683 | 42913 ft | 478 kts | 291° |
| 2026-05-04 18:53 | 48.28684 | 15.46424 | 42911 ft | 477 kts | 291° |
| 2026-05-04 18:54 | 48.31164 | 15.37172 | 42909 ft | 477 kts | 291° |
| 2026-05-04 18:54 | 48.33638 | 15.27910 | 42906 ft | 477 kts | 291° |
| 2026-05-04 18:55 | 48.36105 | 15.18635 | 42918 ft | 477 kts | 291° |
| 2026-05-04 18:55 | 48.39771 | 15.04782 | 42914 ft | 477 kts | 291° |
| 2026-05-04 18:56 | 48.42225 | 14.95464 | 42915 ft | 476 kts | 291° |
| 2026-05-04 18:56 | 48.44646 | 14.86234 | 42908 ft | 476 kts | 290° |
| 2026-05-04 18:57 | 48.47077 | 14.76929 | 42902 ft | 476 kts | 290° |
| 2026-05-04 18:57 | 48.49503 | 14.67605 | 42902 ft | 476 kts | 290° |
| 2026-05-04 18:58 | 48.51906 | 14.58332 | 42907 ft | 477 kts | 290° |
| 2026-05-04 18:58 | 48.53910 | 14.50569 | 42909 ft | 477 kts | 290° |
| 2026-05-04 18:59 | 48.56707 | 14.39691 | 42912 ft | 477 kts | 290° |
| 2026-05-04 18:59 | 48.58714 | 14.31852 | 42912 ft | 477 kts | 290° |
| 2026-05-04 19:00 | 48.61087 | 14.22551 | 42916 ft | 477 kts | 290° |
| 2026-05-04 19:00 | 48.63476 | 14.13149 | 42921 ft | 478 kts | 290° |
| 2026-05-04 19:01 | 48.65852 | 14.03758 | 42921 ft | 478 kts | 290° |
| 2026-05-04 19:01 | 48.68215 | 13.94380 | 42919 ft | 479 kts | 290° |
| 2026-05-04 19:02 | 48.70579 | 13.84955 | 42920 ft | 479 kts | 289° |
| 2026-05-04 19:02 | 48.72928 | 13.75552 | 42924 ft | 479 kts | 289° |
| 2026-05-04 19:03 | 48.75285 | 13.66081 | 42920 ft | 480 kts | 289° |
| 2026-05-04 19:03 | 48.77639 | 13.56581 | 42920 ft | 480 kts | 289° |
| 2026-05-04 19:04 | 48.79972 | 13.47124 | 42917 ft | 480 kts | 289° |
| 2026-05-04 19:04 | 48.82306 | 13.37620 | 42914 ft | 480 kts | 289° |
| 2026-05-04 19:05 | 48.84618 | 13.28170 | 42921 ft | 480 kts | 289° |
| 2026-05-04 19:05 | 48.86942 | 13.18629 | 42926 ft | 480 kts | 289° |
| 2026-05-04 19:06 | 48.89239 | 13.09157 | 42920 ft | 480 kts | 289° |
| 2026-05-04 19:06 | 48.91538 | 12.99634 | 42918 ft | 479 kts | 288° |
| 2026-05-04 19:07 | 48.93826 | 12.90117 | 42914 ft | 479 kts | 288° |
| 2026-05-04 19:07 | 48.96109 | 12.80582 | 42915 ft | 479 kts | 288° |
| 2026-05-04 19:08 | 48.98388 | 12.71018 | 42914 ft | 479 kts | 288° |
| 2026-05-04 19:08 | 49.00644 | 12.61511 | 42913 ft | 479 kts | 288° |
| 2026-05-04 19:09 | 49.02906 | 12.51936 | 42921 ft | 479 kts | 288° |
| 2026-05-04 19:09 | 49.05148 | 12.42408 | 42922 ft | 479 kts | 288° |
| 2026-05-04 19:10 | 49.07397 | 12.32801 | 42921 ft | 480 kts | 288° |
| 2026-05-04 19:10 | 49.09633 | 12.23212 | 42921 ft | 480 kts | 288° |
| 2026-05-04 19:11 | 49.11852 | 12.13648 | 42923 ft | 480 kts | 288° |
| 2026-05-04 19:11 | 49.14068 | 12.04058 | 42939 ft | 480 kts | 288° |
| 2026-05-04 19:12 | 49.17392 | 11.89590 | 42939 ft | 480 kts | 287° |
| 2026-05-04 19:13 | 49.19578 | 11.80024 | 42937 ft | 480 kts | 287° |
| 2026-05-04 19:13 | 49.21773 | 11.70376 | 42934 ft | 480 kts | 287° |
| 2026-05-04 19:14 | 49.23966 | 11.60687 | 42929 ft | 480 kts | 287° |
| 2026-05-04 19:14 | 49.26132 | 11.51078 | 42935 ft | 480 kts | 287° |
| 2026-05-04 19:15 | 49.28308 | 11.41381 | 42938 ft | 480 kts | 287° |
| 2026-05-04 19:15 | 49.30478 | 11.31663 | 42937 ft | 480 kts | 287° |
| 2026-05-04 19:16 | 49.32621 | 11.22021 | 42947 ft | 480 kts | 287° |
| 2026-05-04 19:16 | 49.34775 | 11.12309 | 42942 ft | 480 kts | 287° |
| 2026-05-04 19:17 | 49.36923 | 11.02597 | 42939 ft | 480 kts | 287° |
| 2026-05-04 19:17 | 49.39192 | 10.92998 | 42942 ft | 482 kts | 295° |
| 2026-05-04 19:18 | 49.42257 | 10.83824 | 42962 ft | 481 kts | 293° |
| 2026-05-04 19:18 | 49.45152 | 10.74585 | 42972 ft | 482 kts | 293° |
| 2026-05-04 19:19 | 49.48119 | 10.65302 | 42963 ft | 483 kts | 294° |
| 2026-05-04 19:19 | 49.51078 | 10.56100 | 42953 ft | 483 kts | 294° |
| 2026-05-04 19:20 | 49.54059 | 10.46806 | 42953 ft | 483 kts | 294° |
| 2026-05-04 19:20 | 49.57025 | 10.37523 | 42954 ft | 483 kts | 294° |
| 2026-05-04 19:21 | 49.59992 | 10.28200 | 42950 ft | 484 kts | 294° |
| 2026-05-04 19:21 | 49.62935 | 10.18918 | 42959 ft | 484 kts | 293° |
| 2026-05-04 19:22 | 49.65897 | 10.09539 | 42964 ft | 485 kts | 293° |
| 2026-05-04 19:22 | 49.68836 | 10.00200 | 42966 ft | 485 kts | 293° |
| 2026-05-04 19:23 | 49.71791 | 9.90774 | 42963 ft | 486 kts | 293° |
| 2026-05-04 19:23 | 49.74716 | 9.81409 | 42965 ft | 486 kts | 293° |
| 2026-05-04 19:24 | 49.77653 | 9.71968 | 42968 ft | 487 kts | 293° |
| 2026-05-04 19:24 | 49.80590 | 9.62491 | 42973 ft | 487 kts | 293° |
| 2026-05-04 19:25 | 49.83515 | 9.53018 | 42984 ft | 487 kts | 293° |
| 2026-05-04 19:25 | 49.86412 | 9.43599 | 42977 ft | 487 kts | 293° |
| 2026-05-04 19:26 | 49.89324 | 9.34094 | 42979 ft | 487 kts | 293° |
| 2026-05-04 19:26 | 49.92224 | 9.24593 | 42972 ft | 487 kts | 293° |
| 2026-05-04 19:27 | 49.95105 | 9.15116 | 42973 ft | 487 kts | 293° |
| 2026-05-04 19:27 | 49.97995 | 9.05574 | 42974 ft | 487 kts | 292° |
| 2026-05-04 19:28 | 50.00857 | 8.96083 | 42970 ft | 487 kts | 292° |
| 2026-05-04 19:28 | 50.03726 | 8.86537 | 42966 ft | 487 kts | 292° |
| 2026-05-04 19:29 | 50.06225 | 8.76849 | 42969 ft | 482 kts | 283° |
| 2026-05-04 19:29 | 50.08533 | 8.66993 | 42976 ft | 485 kts | 290° |
| 2026-05-04 19:30 | 50.11033 | 8.57190 | 42941 ft | 485 kts | 289° |
| 2026-05-04 19:30 | 50.13392 | 8.47335 | 42974 ft | 485 kts | 288° |
| 2026-05-04 19:31 | 50.15695 | 8.37489 | 42973 ft | 486 kts | 288° |
| 2026-05-04 19:31 | 50.17997 | 8.27582 | 42977 ft | 486 kts | 288° |
| 2026-05-04 19:32 | 50.20297 | 8.17656 | 42962 ft | 486 kts | 288° |
| 2026-05-04 19:32 | 50.22598 | 8.07687 | 42971 ft | 488 kts | 288° |
| 2026-05-04 19:33 | 50.24877 | 7.97756 | 42982 ft | 487 kts | 287° |
| 2026-05-04 19:33 | 50.27157 | 7.87770 | 42991 ft | 486 kts | 287° |
| 2026-05-04 19:34 | 50.29411 | 7.77847 | 42987 ft | 488 kts | 287° |
| 2026-05-04 19:34 | 50.31680 | 7.67815 | 42988 ft | 488 kts | 287° |
| 2026-05-04 19:35 | 50.33937 | 7.57786 | 42990 ft | 487 kts | 287° |
| 2026-05-04 19:35 | 50.36183 | 7.47761 | 42990 ft | 487 kts | 287° |
| 2026-05-04 19:36 | 50.38402 | 7.37806 | 42997 ft | 487 kts | 287° |
| 2026-05-04 19:36 | 50.40628 | 7.27771 | 42991 ft | 487 kts | 287° |
| 2026-05-04 19:37 | 50.42845 | 7.17732 | 42998 ft | 486 kts | 287° |
| 2026-05-04 19:37 | 50.45053 | 7.07681 | 42951 ft | 485 kts | 287° |
| 2026-05-04 19:37 | 50.46144 | 7.02702 | 42813 ft | 478 kts | 287° |
| 2026-05-04 19:38 | 50.47202 | 6.97863 | 42559 ft | 471 kts | 287° |
| 2026-05-04 19:38 | 50.48263 | 6.92997 | 41974 ft | 470 kts | 287° |
| 2026-05-04 19:38 | 50.49319 | 6.88132 | 41328 ft | 470 kts | 286° |
| 2026-05-04 19:38 | 50.50369 | 6.83286 | 41045 ft | 465 kts | 285° |
| 2026-05-04 19:39 | 50.51293 | 6.78392 | 40973 ft | 469 kts | 282° |
| 2026-05-04 19:39 | 50.53027 | 6.68464 | 40966 ft | 474 kts | 283° |
| 2026-05-04 19:40 | 50.54803 | 6.58473 | 40966 ft | 474 kts | 283° |
| 2026-05-04 19:40 | 50.56561 | 6.48458 | 40972 ft | 475 kts | 283° |
| 2026-05-04 19:41 | 50.58305 | 6.38429 | 40966 ft | 475 kts | 283° |
| 2026-05-04 19:41 | 50.60032 | 6.28438 | 40967 ft | 474 kts | 282° |
| 2026-05-04 19:42 | 50.61749 | 6.18446 | 40963 ft | 474 kts | 282° |
| 2026-05-04 19:42 | 50.63466 | 6.08405 | 40960 ft | 474 kts | 282° |
| 2026-05-04 19:43 | 50.65171 | 5.98373 | 40949 ft | 474 kts | 282° |
| 2026-05-04 19:43 | 50.66861 | 5.88368 | 40954 ft | 474 kts | 282° |
| 2026-05-04 19:44 | 50.68551 | 5.78308 | 40965 ft | 474 kts | 282° |
| 2026-05-04 19:44 | 50.69950 | 5.69938 | 40952 ft | 474 kts | 282° |
| 2026-05-04 19:45 | 50.71899 | 5.58201 | 40960 ft | 475 kts | 282° |
| 2026-05-04 19:45 | 50.73302 | 5.49708 | 40955 ft | 476 kts | 282° |
| 2026-05-04 19:46 | 50.74956 | 5.39637 | 40962 ft | 477 kts | 282° |
| 2026-05-04 19:46 | 50.76615 | 5.29471 | 40974 ft | 477 kts | 282° |
| 2026-05-04 19:47 | 50.78262 | 5.19320 | 40969 ft | 477 kts | 282° |
| 2026-05-04 19:47 | 50.79914 | 5.09190 | 40964 ft | 478 kts | 284° |
| 2026-05-04 19:48 | 50.82308 | 4.99329 | 40967 ft | 481 kts | 294° |
| 2026-05-04 19:48 | 50.85323 | 4.89858 | 40965 ft | 482 kts | 294° |
| 2026-05-04 19:49 | 50.87575 | 4.82706 | 40966 ft | 482 kts | 294° |
| 2026-05-04 19:49 | 50.90565 | 4.73195 | 40967 ft | 482 kts | 294° |
| 2026-05-04 19:50 | 50.93556 | 4.63662 | 40966 ft | 483 kts | 294° |
| 2026-05-04 19:50 | 50.96549 | 4.54090 | 40964 ft | 483 kts | 294° |
| 2026-05-04 19:51 | 50.99511 | 4.44581 | 40965 ft | 483 kts | 294° |
| 2026-05-04 19:51 | 51.02486 | 4.34992 | 40963 ft | 483 kts | 294° |
| 2026-05-04 19:52 | 51.05434 | 4.25453 | 40969 ft | 483 kts | 294° |
| 2026-05-04 19:52 | 51.08391 | 4.15846 | 40971 ft | 483 kts | 294° |
| 2026-05-04 19:53 | 51.11343 | 4.06216 | 40970 ft | 483 kts | 294° |
| 2026-05-04 19:53 | 51.14269 | 3.96638 | 40977 ft | 483 kts | 294° |
| 2026-05-04 19:54 | 51.17208 | 3.86976 | 40980 ft | 483 kts | 293° |
| 2026-05-04 19:54 | 51.20132 | 3.77323 | 40985 ft | 483 kts | 293° |
| 2026-05-04 19:55 | 51.23043 | 3.67680 | 40981 ft | 483 kts | 294° |
| 2026-05-04 19:55 | 51.26378 | 3.58335 | 40982 ft | 485 kts | 298° |
| 2026-05-04 19:56 | 51.29803 | 3.49117 | 40987 ft | 485 kts | 298° |
| 2026-05-04 19:56 | 51.33228 | 3.39827 | 40996 ft | 484 kts | 297° |
| 2026-05-04 19:57 | 51.36092 | 3.30115 | 40988 ft | 482 kts | 289° |
| 2026-05-04 19:57 | 51.38443 | 3.20120 | 40991 ft | 482 kts | 289° |
| 2026-05-04 19:58 | 51.40835 | 3.10092 | 40997 ft | 482 kts | 289° |
| 2026-05-04 19:58 | 51.43207 | 3.00038 | 41004 ft | 482 kts | 289° |
| 2026-05-04 19:59 | 51.45554 | 2.90021 | 41004 ft | 482 kts | 288° |
| 2026-05-04 19:59 | 51.47907 | 2.79924 | 41000 ft | 482 kts | 288° |
| 2026-05-04 19:59 | 51.49071 | 2.74913 | 40778 ft | 476 kts | 288° |
| 2026-05-04 20:00 | 51.50223 | 2.69947 | 40551 ft | 471 kts | 288° |
| 2026-05-04 20:00 | 51.51358 | 2.65037 | 40102 ft | 470 kts | 288° |
| 2026-05-04 20:00 | 51.52487 | 2.60136 | 39372 ft | 474 kts | 288° |
| 2026-05-04 20:00 | 51.53636 | 2.55137 | 38472 ft | 479 kts | 288° |
| 2026-05-04 20:01 | 51.54801 | 2.50060 | 37342 ft | 485 kts | 288° |
| 2026-05-04 20:01 | 51.55958 | 2.45008 | 36436 ft | 486 kts | 288° |
| 2026-05-04 20:01 | 51.57124 | 2.39914 | 35719 ft | 482 kts | 288° |
| 2026-05-04 20:01 | 51.58286 | 2.34822 | 34733 ft | 485 kts | 288° |
| 2026-05-04 20:02 | 51.59443 | 2.29739 | 33840 ft | 485 kts | 288° |
| 2026-05-04 20:02 | 51.60596 | 2.24665 | 33101 ft | 479 kts | 288° |
| 2026-05-04 20:02 | 51.61718 | 2.19717 | 32440 ft | 472 kts | 288° |
| 2026-05-04 20:02 | 51.62828 | 2.14806 | 31888 ft | 464 kts | 288° |
| 2026-05-04 20:03 | 51.63926 | 2.09939 | 31273 ft | 458 kts | 288° |
| 2026-05-04 20:03 | 51.65005 | 2.05138 | 30676 ft | 452 kts | 287° |
| 2026-05-04 20:03 | 51.66067 | 2.00400 | 30183 ft | 445 kts | 287° |
| 2026-05-04 20:03 | 51.67107 | 1.95754 | 29987 ft | 435 kts | 287° |
| 2026-05-04 20:04 | 51.68120 | 1.91208 | 29564 ft | 435 kts | 287° |
| 2026-05-04 20:04 | 51.69148 | 1.86588 | 28838 ft | 441 kts | 287° |
| 2026-05-04 20:04 | 51.70181 | 1.81929 | 28039 ft | 441 kts | 287° |
| 2026-05-04 20:04 | 51.71211 | 1.77283 | 27289 ft | 438 kts | 288° |
| 2026-05-04 20:05 | 51.72233 | 1.72669 | 26567 ft | 434 kts | 287° |
| 2026-05-04 20:05 | 51.73245 | 1.68089 | 25856 ft | 430 kts | 287° |
| 2026-05-04 20:05 | 51.74046 | 1.63536 | 25169 ft | 425 kts | 279° |
| 2026-05-04 20:05 | 51.74402 | 1.58831 | 24498 ft | 419 kts | 270° |
| 2026-05-04 20:06 | 51.74326 | 1.54155 | 23836 ft | 414 kts | 263° |
| 2026-05-04 20:06 | 51.73999 | 1.49543 | 23101 ft | 411 kts | 263° |
| 2026-05-04 20:06 | 51.73702 | 1.44970 | 22352 ft | 407 kts | 263° |
| 2026-05-04 20:06 | 51.73418 | 1.40437 | 21609 ft | 404 kts | 262° |
| 2026-05-04 20:07 | 51.73136 | 1.36000 | 20890 ft | 400 kts | 262° |
| 2026-05-04 20:07 | 51.72847 | 1.31538 | 20197 ft | 398 kts | 263° |
| 2026-05-04 20:07 | 51.72557 | 1.27125 | 19517 ft | 395 kts | 263° |
| 2026-05-04 20:07 | 51.72266 | 1.22721 | 18828 ft | 392 kts | 263° |
| 2026-05-04 20:08 | 51.71978 | 1.18405 | 18155 ft | 389 kts | 262° |
| 2026-05-04 20:08 | 51.71687 | 1.14084 | 17410 ft | 386 kts | 263° |
| 2026-05-04 20:08 | 51.71397 | 1.09796 | 16632 ft | 382 kts | 263° |
| 2026-05-04 20:08 | 51.71113 | 1.05600 | 16171 ft | 366 kts | 263° |
| 2026-05-04 20:09 | 51.70843 | 1.01634 | 16045 ft | 343 kts | 263° |
| 2026-05-04 20:09 | 51.70591 | 0.97942 | 16034 ft | 321 kts | 263° |
| 2026-05-04 20:09 | 51.70347 | 0.94404 | 15794 ft | 315 kts | 263° |
| 2026-05-04 20:09 | 51.70105 | 0.90913 | 15469 ft | 313 kts | 263° |
| 2026-05-04 20:10 | 51.69864 | 0.87452 | 15131 ft | 314 kts | 263° |
| 2026-05-04 20:10 | 51.69621 | 0.83973 | 14761 ft | 311 kts | 263° |
| 2026-05-04 20:10 | 51.69378 | 0.80514 | 14397 ft | 310 kts | 263° |
| 2026-05-04 20:10 | 51.69136 | 0.77081 | 14117 ft | 307 kts | 264° |
| 2026-05-04 20:11 | 51.68894 | 0.73659 | 14032 ft | 307 kts | 264° |
| 2026-05-04 20:11 | 51.68651 | 0.70234 | 14020 ft | 307 kts | 264° |
| 2026-05-04 20:11 | 51.68407 | 0.66801 | 13802 ft | 309 kts | 264° |
| 2026-05-04 20:11 | 51.68162 | 0.63380 | 13483 ft | 305 kts | 264° |
| 2026-05-04 20:12 | 51.67919 | 0.59999 | 13169 ft | 303 kts | 263° |
| 2026-05-04 20:12 | 51.67679 | 0.56671 | 12831 ft | 302 kts | 264° |
| 2026-05-04 20:12 | 51.67436 | 0.53311 | 12413 ft | 301 kts | 264° |
| 2026-05-04 20:12 | 51.67192 | 0.49957 | 12014 ft | 300 kts | 263° |
| 2026-05-04 20:13 | 51.66949 | 0.46624 | 11606 ft | 298 kts | 263° |
| 2026-05-04 20:13 | 51.66709 | 0.43354 | 11216 ft | 296 kts | 263° |
| 2026-05-04 20:13 | 51.66417 | 0.40079 | 10811 ft | 294 kts | 261° |
| 2026-05-04 20:13 | 51.66097 | 0.36821 | 10430 ft | 292 kts | 261° |
| 2026-05-04 20:14 | 51.65783 | 0.33603 | 10094 ft | 288 kts | 261° |
| 2026-05-04 20:14 | 51.65479 | 0.30452 | 9845 ft | 281 kts | 261° |
| 2026-05-04 20:14 | 51.65181 | 0.27369 | 9553 ft | 275 kts | 261° |
| 2026-05-04 20:14 | 51.64890 | 0.24394 | 9227 ft | 270 kts | 261° |
| 2026-05-04 20:15 | 51.64599 | 0.21438 | 8841 ft | 262 kts | 261° |
| 2026-05-04 20:15 | 51.64315 | 0.18588 | 8527 ft | 251 kts | 261° |
| 2026-05-04 20:15 | 51.64040 | 0.15871 | 8212 ft | 242 kts | 261° |
| 2026-05-04 20:15 | 51.63774 | 0.13255 | 7896 ft | 233 kts | 261° |
| 2026-05-04 20:16 | 51.63508 | 0.10722 | 7727 ft | 227 kts | 261° |
| 2026-05-04 20:16 | 51.63244 | 0.08208 | 7655 ft | 229 kts | 261° |
| 2026-05-04 20:16 | 51.62980 | 0.05691 | 7504 ft | 231 kts | 261° |
| 2026-05-04 20:16 | 51.62714 | 0.03153 | 7352 ft | 228 kts | 261° |
| 2026-05-04 20:17 | 51.62447 | 0.00631 | 7202 ft | 229 kts | 261° |
| 2026-05-04 20:17 | 51.62181 | -0.01892 | 7081 ft | 229 kts | 261° |
| 2026-05-04 20:17 | 51.61924 | -0.04419 | 6924 ft | 229 kts | 261° |
| 2026-05-04 20:17 | 51.61671 | -0.06906 | 6781 ft | 225 kts | 261° |
| 2026-05-04 20:18 | 51.61416 | -0.09400 | 6636 ft | 228 kts | 261° |
| 2026-05-04 20:18 | 51.61159 | -0.11915 | 6492 ft | 226 kts | 261° |
| 2026-05-04 20:18 | 51.60905 | -0.14388 | 6336 ft | 223 kts | 261° |
| 2026-05-04 20:18 | 51.60658 | -0.16771 | 6191 ft | 223 kts | 261° |
| 2026-05-04 20:19 | 51.60397 | -0.19295 | 6076 ft | 224 kts | 261° |
| 2026-05-04 20:19 | 51.60136 | -0.21786 | 5975 ft | 223 kts | 261° |
| 2026-05-04 20:19 | 51.59877 | -0.24233 | 5867 ft | 226 kts | 261° |
| 2026-05-04 20:19 | 51.59618 | -0.26724 | 5746 ft | 224 kts | 261° |
| 2026-05-04 20:20 | 51.59357 | -0.29197 | 5644 ft | 223 kts | 261° |
| 2026-05-04 20:20 | 51.59092 | -0.31664 | 5539 ft | 222 kts | 261° |
| 2026-05-04 20:20 | 51.58824 | -0.34118 | 5436 ft | 223 kts | 261° |
| 2026-05-04 20:20 | 51.58559 | -0.36565 | 5283 ft | 223 kts | 261° |
| 2026-05-04 20:21 | 51.58284 | -0.39032 | 5124 ft | 222 kts | 261° |
| 2026-05-04 20:21 | 51.58012 | -0.41493 | 4971 ft | 222 kts | 261° |
| 2026-05-04 20:21 | 51.57470 | -0.46382 | 4671 ft | 222 kts | 261° |
| 2026-05-04 20:22 | 51.57194 | -0.48832 | 4564 ft | 223 kts | 261° |
| 2026-05-04 20:22 | 51.56919 | -0.51305 | 4462 ft | 226 kts | 261° |
| 2026-05-04 20:22 | 51.56646 | -0.53798 | 4354 ft | 226 kts | 261° |
| 2026-05-04 20:22 | 51.56365 | -0.56302 | 4255 ft | 228 kts | 261° |
| 2026-05-04 20:23 | 51.56083 | -0.58804 | 4154 ft | 226 kts | 261° |
| 2026-05-04 20:23 | 51.55805 | -0.61314 | 3986 ft | 230 kts | 261° |
| 2026-05-04 20:23 | 51.55514 | -0.63836 | 3805 ft | 231 kts | 261° |
| 2026-05-04 20:23 | 51.55223 | -0.66349 | 3619 ft | 229 kts | 261° |
| 2026-05-04 20:24 | 51.54938 | -0.68870 | 3459 ft | 228 kts | 261° |
| 2026-05-04 20:24 | 51.54656 | -0.71370 | 3269 ft | 229 kts | 261° |
| 2026-05-04 20:24 | 51.54377 | -0.73850 | 3109 ft | 222 kts | 259° |
| 2026-05-04 20:24 | 51.53762 | -0.76060 | 2970 ft | 215 kts | 227° |
| 2026-05-04 20:25 | 51.52579 | -0.77277 | 2856 ft | 195 kts | 193° |
| 2026-05-04 20:25 | 51.51257 | -0.77362 | 2735 ft | 190 kts | 163° |
| 2026-05-04 20:25 | 51.50545 | -0.76955 | 2662 ft | 187 kts | 153° |
| 2026-05-04 20:25 | 51.49341 | -0.76153 | 2546 ft | 185 kts | 155° |
| 2026-05-04 20:26 | 51.48305 | -0.75092 | 2523 ft | 173 kts | 124° |
| 2026-05-04 20:26 | 51.47815 | -0.73386 | 2540 ft | 168 kts | 99° |
| 2026-05-04 20:26 | 51.47699 | -0.71531 | 2545 ft | 167 kts | 89° |
| 2026-05-04 20:26 | 51.47705 | -0.69670 | 2545 ft | 166 kts | 87° |
| 2026-05-04 20:27 | 51.47706 | -0.67814 | 2510 ft | 166 kts | 88° |
| 2026-05-04 20:27 | 51.47710 | -0.65988 | 2281 ft | 165 kts | 87° |
| 2026-05-04 20:27 | 51.47713 | -0.64151 | 2063 ft | 165 kts | 87° |
| 2026-05-04 20:27 | 51.47716 | -0.62322 | 1847 ft | 162 kts | 87° |
| 2026-05-04 20:28 | 51.47720 | -0.60621 | 1634 ft | 160 kts | 88° |
| 2026-05-04 20:28 | 51.47720 | -0.58967 | 1419 ft | 138 kts | 86° |
| 2026-05-04 20:28 | 51.47726 | -0.57467 | 1243 ft | 131 kts | 86° |
| 2026-05-04 20:28 | 51.47729 | -0.56016 | 1061 ft | 130 kts | 86° |
| 2026-05-04 20:29 | 51.47734 | -0.54566 | 870 ft | 131 kts | 87° |
| 2026-05-04 20:29 | 51.47737 | -0.53107 | 694 ft | 129 kts | 85° |
| 2026-05-04 20:29 | 51.47741 | -0.51654 | 518 ft | 131 kts | 88° |
| 2026-05-04 20:29 | 51.47753 | -0.50191 | 327 ft | 132 kts | 85° |
| 2026-05-04 20:30 | 51.47758 | -0.49202 | 214 ft | 131 kts | 86° |
| 2026-05-04 20:30 | 51.47756 | -0.47756 | 94 ft | 123 kts | 88° |
| 2026-05-04 20:30 | 51.47763 | -0.46355 | 93 ft | 72 kts | 90° |
| 2026-05-04 20:30 | 51.47769 | -0.45886 | 93 ft | 50 kts | 89° |
| 2026-05-04 20:31 | 51.47760 | -0.45610 | 92 ft | 14 kts | 91° |
| 2026-05-04 20:31 | 51.47749 | -0.45522 | 91 ft | 11 kts | 120° |
| 2026-05-04 20:31 | 51.47674 | -0.45464 | 92 ft | 15 kts | 177° |
| 2026-05-04 20:31 | 51.47647 | -0.45465 | 91 ft | 4 kts | 181° |
| 2026-05-04 20:32 | 51.47626 | -0.45465 | 91 ft | 2 kts | 181° |
| 2026-05-04 20:32 | 51.47587 | -0.45465 | 91 ft | 9 kts | 180° |
| 2026-05-04 20:32 | 51.47518 | -0.45425 | 93 ft | 12 kts | 117° |
| 2026-05-04 20:32 | 51.47509 | -0.45276 | 95 ft | 15 kts | 89° |
| 2026-05-04 20:33 | 51.47508 | -0.45093 | 95 ft | 18 kts | 90° |
| 2026-05-04 20:33 | 51.47508 | -0.44882 | 94 ft | 20 kts | 90° |
| 2026-05-04 20:33 | 51.47511 | -0.44709 | 95 ft | 1 kts | 89° |
| 2026-05-04 20:33 | 51.47504 | -0.44615 | 94 ft | 12 kts | 110° |
| 2026-05-04 20:34 | 51.47438 | -0.44559 | 92 ft | 14 kts | 179° |
| 2026-05-04 20:34 | 51.47325 | -0.44558 | 91 ft | 15 kts | 179° |
| 2026-05-04 20:34 | 51.47228 | -0.44556 | 91 ft | 15 kts | 179° |
| 2026-05-04 20:34 | 51.47178 | -0.44556 | 94 ft | 4 kts | 179° |
| 2026-05-04 20:35 | 51.47121 | -0.44555 | 94 ft | 12 kts | 179° |
| 2026-05-04 20:35 | 51.47028 | -0.44558 | 91 ft | 11 kts | 179° |
| 2026-05-04 20:35 | 51.46929 | -0.44554 | 91 ft | 17 kts | 179° |
| 2026-05-04 20:35 | 51.46853 | -0.44552 | 92 ft | 4 kts | 180° |
| 2026-05-04 20:36 | 51.46852 | -0.44552 | 92 ft | 0 kts | 180° |
| 2026-05-04 20:37 | 51.46840 | -0.44552 | 93 ft | 5 kts | 180° |
| 2026-05-04 20:37 | 51.46781 | -0.44557 | 95 ft | 8 kts | 192° |
| 2026-05-04 20:37 | 51.46757 | -0.44592 | 96 ft | 7 kts | 253° |
| 2026-05-04 20:37 | 51.46752 | -0.44691 | 91 ft | 12 kts | 270° |
| 2026-05-04 20:38 | 51.46752 | -0.44845 | 91 ft | 16 kts | 269° |
| 2026-05-04 20:38 | 51.46752 | -0.44951 | 94 ft | 3 kts | 270° |
| 2026-05-04 20:38 | 51.46751 | -0.45022 | 91 ft | 10 kts | 269° |
| 2026-05-04 20:38 | 51.46750 | -0.45146 | 91 ft | 12 kts | 269° |
| 2026-05-04 20:39 | 51.46749 | -0.45265 | 93 ft | 13 kts | 269° |
| 2026-05-04 20:39 | 51.46748 | -0.45361 | 95 ft | 2 kts | 269° |
| 2026-05-04 20:39 | 51.46757 | -0.45424 | 93 ft | 8 kts | 306° |
| 2026-05-04 20:39 | 51.46794 | -0.45447 | 93 ft | 6 kts | 2° |
| 2026-05-04 20:40 | 51.46809 | -0.45447 | 91 ft | 0 kts | 2° |
| 2026-05-04 20:40 | 51.46817 | -0.45446 | 91 ft | 2 kts | 2° |
| 2026-05-04 20:40 | 51.46834 | -0.45446 | 91 ft | 2 kts | 1° |
| 2026-05-04 20:40 | 51.46836 | -0.45446 | 91 ft | 0 kts | 1° |